sensor_id;sensor_type;location;lat;lon;timestamp;pressure;altitude;pressure_sealevel;temperature;humidity
47166;BME280;32930;51.112;13.762;2023-01-31T00:01:13;99247.16;;;4.91;88.01
47166;BME280;32930;51.112;13.762;2023-01-31T00:03:42;99241.16;;;4.88;87.66
47166;BME280;32930;51.112;13.762;2023-01-31T00:06:20;99250.47;;;4.88;87.70
47166;BME280;32930;51.112;13.762;2023-01-31T00:08:48;99245.38;;;4.86;87.64
47166;BME280;32930;51.112;13.762;2023-01-31T00:11:16;99250.31;;;4.82;87.92
47166;BME280;32930;51.112;13.762;2023-01-31T00:13:42;99246.88;;;4.78;87.24
47166;BME280;32930;51.112;13.762;2023-01-31T00:16:09;99238.38;;;4.76;87.80
47166;BME280;32930;51.112;13.762;2023-01-31T00:18:35;99257.84;;;4.77;87.74
47166;BME280;32930;51.112;13.762;2023-01-31T00:21:14;99254.81;;;4.92;87.19
47166;BME280;32930;51.112;13.762;2023-01-31T00:23:42;99250.25;;;4.79;88.31
47166;BME280;32930;51.112;13.762;2023-01-31T00:35:20;99255.81;;;4.99;87.59
47166;BME280;32930;51.112;13.762;2023-01-31T00:37:45;99257.53;;;5.00;87.83
47166;BME280;32930;51.112;13.762;2023-01-31T00:40:11;99269.41;;;5.01;87.68
47166;BME280;32930;51.112;13.762;2023-01-31T00:42:37;99271.78;;;4.93;88.01
47166;BME280;32930;51.112;13.762;2023-01-31T00:45:02;99274.25;;;4.90;88.92
47166;BME280;32930;51.112;13.762;2023-01-31T00:47:28;99268.25;;;4.88;88.98
47166;BME280;32930;51.112;13.762;2023-01-31T00:49:54;99275.09;;;4.89;88.33
47166;BME280;32930;51.112;13.762;2023-01-31T00:52:19;99265.22;;;5.01;87.75
47166;BME280;32930;51.112;13.762;2023-01-31T00:54:45;99270.53;;;5.12;87.03
47166;BME280;32930;51.112;13.762;2023-01-31T00:57:10;99272.34;;;4.81;87.26
47166;BME280;32930;51.112;13.762;2023-01-31T00:59:36;99280.47;;;5.03;86.92
47166;BME280;32930;51.112;13.762;2023-01-31T01:02:01;99282.72;;;4.91;86.93
47166;BME280;32930;51.112;13.762;2023-01-31T01:04:27;99295.28;;;4.84;87.32
47166;BME280;32930;51.112;13.762;2023-01-31T01:06:52;99306.66;;;4.99;86.80
47166;BME280;32930;51.112;13.762;2023-01-31T01:09:18;99303.97;;;4.93;86.33
47166;BME280;32930;51.112;13.762;2023-01-31T01:11:44;99320.63;;;4.81;86.21
47166;BME280;32930;51.112;13.762;2023-01-31T01:14:09;99316.97;;;4.70;86.10
47166;BME280;32930;51.112;13.762;2023-01-31T01:16:37;99327.28;;;4.76;85.33
47166;BME280;32930;51.112;13.762;2023-01-31T01:19:05;99327.94;;;4.69;84.92
47166;BME280;32930;51.112;13.762;2023-01-31T01:28:15;99330.31;;;4.61;84.08
47166;BME280;32930;51.112;13.762;2023-01-31T01:30:40;99344.28;;;4.79;83.87
47166;BME280;32930;51.112;13.762;2023-01-31T01:33:06;99346.75;;;4.76;83.45
47166;BME280;32930;51.112;13.762;2023-01-31T01:35:32;99333.53;;;4.56;83.53
47166;BME280;32930;51.112;13.762;2023-01-31T01:37:57;99354.19;;;4.68;84.61
47166;BME280;32930;51.112;13.762;2023-01-31T01:40:23;99347.31;;;4.64;85.04
47166;BME280;32930;51.112;13.762;2023-01-31T01:42:48;99359.25;;;4.67;85.16
47166;BME280;32930;51.112;13.762;2023-01-31T01:45:14;99354.19;;;4.68;86.24
47166;BME280;32930;51.112;13.762;2023-01-31T01:47:54;99355.72;;;4.63;85.88
47166;BME280;32930;51.112;13.762;2023-01-31T02:03:07;99389.91;;;4.74;87.82
47166;BME280;32930;51.112;13.762;2023-01-31T02:05:43;99397.22;;;4.62;88.02
47166;BME280;32930;51.112;13.762;2023-01-31T02:52:42;99422.81;;;4.70;88.76
47166;BME280;32930;51.112;13.762;2023-01-31T02:58:06;99437.59;;;4.84;87.24
47166;BME280;32930;51.112;13.762;2023-01-31T03:00:36;99442.34;;;4.72;86.55
47166;BME280;32930;51.112;13.762;2023-01-31T03:03:07;99455.38;;;4.83;86.83
47166;BME280;32930;51.112;13.762;2023-01-31T03:05:33;99454.69;;;4.90;85.52
47166;BME280;32930;51.112;13.762;2023-01-31T03:08:02;99458.75;;;4.83;85.40
47166;BME280;32930;51.112;13.762;2023-01-31T03:13:26;99476.88;;;4.96;84.70
47166;BME280;32930;51.112;13.762;2023-01-31T03:16:15;99481.03;;;4.92;84.61
47166;BME280;32930;51.112;13.762;2023-01-31T03:21:44;99484.28;;;4.88;84.52
47166;BME280;32930;51.112;13.762;2023-01-31T03:24:13;99491.75;;;4.82;85.65
47166;BME280;32930;51.112;13.762;2023-01-31T03:26:41;99499.75;;;4.96;84.97
47166;BME280;32930;51.112;13.762;2023-01-31T03:29:13;99498.81;;;4.92;85.81
47166;BME280;32930;51.112;13.762;2023-01-31T03:31:48;99506.28;;;4.87;85.48
47166;BME280;32930;51.112;13.762;2023-01-31T03:34:18;99506.03;;;4.77;85.91
47166;BME280;32930;51.112;13.762;2023-01-31T03:36:59;99510.56;;;4.88;85.45
47166;BME280;32930;51.112;13.762;2023-01-31T03:39:39;99512.91;;;4.81;86.67
47166;BME280;32930;51.112;13.762;2023-01-31T03:42:13;99508.66;;;4.80;86.89
47166;BME280;32930;51.112;13.762;2023-01-31T03:44:51;99508.81;;;4.86;87.31
47166;BME280;32930;51.112;13.762;2023-01-31T03:47:29;99510.53;;;4.87;87.49
47166;BME280;32930;51.112;13.762;2023-01-31T03:50:03;99522.53;;;4.93;87.69
47166;BME280;32930;51.112;13.762;2023-01-31T03:52:39;99516.78;;;4.98;86.60
47166;BME280;32930;51.112;13.762;2023-01-31T03:55:22;99507.13;;;4.86;87.36
47166;BME280;32930;51.112;13.762;2023-01-31T04:00:23;99516.53;;;4.89;88.20
47166;BME280;32930;51.112;13.762;2023-01-31T04:35:07;99548.31;;;4.46;95.09
47166;BME280;32930;51.112;13.762;2023-01-31T04:37:32;99546.28;;;4.34;96.35
47166;BME280;32930;51.112;13.762;2023-01-31T04:45:58;99552.22;;;4.35;97.50
47166;BME280;32930;51.112;13.762;2023-01-31T04:48:24;99552.81;;;4.55;95.41
47166;BME280;32930;51.112;13.762;2023-01-31T04:50:49;99551.91;;;4.53;96.34
47166;BME280;32930;51.112;13.762;2023-01-31T04:53:15;99557.06;;;4.56;96.21
47166;BME280;32930;51.112;13.762;2023-01-31T04:55:46;99545.81;;;4.76;95.67
47166;BME280;32930;51.112;13.762;2023-01-31T04:59:05;99554.16;;;4.44;95.38
47166;BME280;32930;51.112;13.762;2023-01-31T05:01:38;99545.09;;;4.52;96.79
47166;BME280;32930;51.112;13.762;2023-01-31T05:04:16;99553.84;;;4.61;95.20
47166;BME280;32930;51.112;13.762;2023-01-31T05:06:52;99551.69;;;4.75;94.14
47166;BME280;32930;51.112;13.762;2023-01-31T05:09:17;99560.19;;;4.76;93.46
47166;BME280;32930;51.112;13.762;2023-01-31T05:11:43;99577.00;;;4.71;93.15
47166;BME280;32930;51.112;13.762;2023-01-31T05:14:09;99567.41;;;4.62;92.35
47166;BME280;32930;51.112;13.762;2023-01-31T05:16:34;99571.31;;;4.79;92.60
47166;BME280;32930;51.112;13.762;2023-01-31T05:19:00;99560.66;;;4.62;93.23
47166;BME280;32930;51.112;13.762;2023-01-31T05:21:25;99567.22;;;4.84;91.96
47166;BME280;32930;51.112;13.762;2023-01-31T05:30:34;99586.22;;;4.67;93.00
47166;BME280;32930;51.112;13.762;2023-01-31T05:33:12;99584.81;;;4.78;91.50
47166;BME280;32930;51.112;13.762;2023-01-31T05:35:38;99590.13;;;4.86;91.34
47166;BME280;32930;51.112;13.762;2023-01-31T05:38:07;99590.72;;;4.77;91.61
47166;BME280;32930;51.112;13.762;2023-01-31T05:43:08;99589.13;;;4.81;91.18
47166;BME280;32930;51.112;13.762;2023-01-31T05:45:34;99589.72;;;4.72;91.04
47166;BME280;32930;51.112;13.762;2023-01-31T06:04:02;99582.53;;;4.87;90.65
47166;BME280;32930;51.112;13.762;2023-01-31T06:06:28;99584.63;;;4.72;92.17
47166;BME280;32930;51.112;13.762;2023-01-31T06:08:53;99584.91;;;4.81;92.71
47166;BME280;32930;51.112;13.762;2023-01-31T06:11:19;99578.19;;;4.83;91.74
47166;BME280;32930;51.112;13.762;2023-01-31T06:13:44;99577.53;;;4.60;93.19
47166;BME280;32930;51.112;13.762;2023-01-31T06:16:10;99584.38;;;4.63;92.28
47166;BME280;32930;51.112;13.762;2023-01-31T06:18:36;99586.28;;;4.70;92.33
47166;BME280;32930;51.112;13.762;2023-01-31T06:21:02;99593.09;;;4.71;93.18
47166;BME280;32930;51.112;13.762;2023-01-31T06:23:31;99592.72;;;4.59;94.03
47166;BME280;32930;51.112;13.762;2023-01-31T06:25:59;99586.88;;;4.61;92.91
47166;BME280;32930;51.112;13.762;2023-01-31T06:37:26;99601.00;;;4.82;92.48
47166;BME280;32930;51.112;13.762;2023-01-31T06:39:52;99605.25;;;4.81;92.01
47166;BME280;32930;51.112;13.762;2023-01-31T06:42:18;99605.50;;;4.91;91.60
47166;BME280;32930;51.112;13.762;2023-01-31T06:44:43;99603.81;;;4.61;94.09
47166;BME280;32930;51.112;13.762;2023-01-31T06:47:12;99600.75;;;4.73;93.51
47166;BME280;32930;51.112;13.762;2023-01-31T06:52:14;99598.34;;;4.77;94.56
47166;BME280;32930;51.112;13.762;2023-01-31T06:54:42;99588.97;;;4.75;93.86
47166;BME280;32930;51.112;13.762;2023-01-31T06:57:15;99586.47;;;4.76;94.24
47166;BME280;32930;51.112;13.762;2023-01-31T07:06:01;99605.44;;;4.59;95.01
47166;BME280;32930;51.112;13.762;2023-01-31T07:08:26;99616.34;;;4.85;93.99
47166;BME280;32930;51.112;13.762;2023-01-31T07:10:52;99615.84;;;4.67;94.26
47166;BME280;32930;51.112;13.762;2023-01-31T07:13:17;99619.91;;;4.61;94.29
47166;BME280;32930;51.112;13.762;2023-01-31T07:18:14;99625.84;;;4.62;94.44
47166;BME280;32930;51.112;13.762;2023-01-31T07:23:26;99617.41;;;4.63;96.12
47166;BME280;32930;51.112;13.762;2023-01-31T07:25:52;99625.38;;;4.75;95.22
47166;BME280;32930;51.112;13.762;2023-01-31T07:28:17;99625.28;;;4.72;95.85
47166;BME280;32930;51.112;13.762;2023-01-31T07:30:50;99617.84;;;4.78;95.30
47166;BME280;32930;51.112;13.762;2023-01-31T07:33:27;99631.97;;;4.97;94.44
47166;BME280;32930;51.112;13.762;2023-01-31T07:35:54;99634.47;;;4.67;95.76
47166;BME280;32930;51.112;13.762;2023-01-31T07:38:22;99622.28;;;4.57;95.63
47166;BME280;32930;51.112;13.762;2023-01-31T07:43:34;99629.78;;;4.81;95.65
47166;BME280;32930;51.112;13.762;2023-01-31T07:45:59;99639.69;;;4.72;96.05
47166;BME280;32930;51.112;13.762;2023-01-31T07:48:26;99637.13;;;4.70;97.29
47166;BME280;32930;51.112;13.762;2023-01-31T07:51:05;99635.47;;;4.72;97.87
47166;BME280;32930;51.112;13.762;2023-01-31T07:53:34;99627.41;;;4.85;97.07
47166;BME280;32930;51.112;13.762;2023-01-31T07:56:13;99624.13;;;4.90;96.63
47166;BME280;32930;51.112;13.762;2023-01-31T07:58:43;99624.91;;;4.87;97.15
47166;BME280;32930;51.112;13.762;2023-01-31T08:01:14;99622.66;;;4.98;96.04
47166;BME280;32930;51.112;13.762;2023-01-31T08:03:58;99630.97;;;4.92;95.53
47166;BME280;32930;51.112;13.762;2023-01-31T08:06:28;99636.84;;;4.90;94.82
47166;BME280;32930;51.112;13.762;2023-01-31T08:08:55;99633.38;;;4.87;95.68
47166;BME280;32930;51.112;13.762;2023-01-31T08:11:26;99625.25;;;4.99;94.91
47166;BME280;32930;51.112;13.762;2023-01-31T08:13:52;99632.22;;;5.06;93.21
47166;BME280;32930;51.112;13.762;2023-01-31T08:16:20;99637.88;;;4.96;94.09
47166;BME280;32930;51.112;13.762;2023-01-31T08:18:49;99633.63;;;4.95;94.59
47166;BME280;32930;51.112;13.762;2023-01-31T08:21:15;99642.88;;;5.23;92.21
47166;BME280;32930;51.112;13.762;2023-01-31T08:23:42;99629.28;;;5.23;91.70
47166;BME280;32930;51.112;13.762;2023-01-31T08:26:18;99634.53;;;5.27;91.56
47166;BME280;32930;51.112;13.762;2023-01-31T08:28:46;99630.78;;;5.15;92.18
47166;BME280;32930;51.112;13.762;2023-01-31T08:31:19;99633.59;;;5.25;92.29
47166;BME280;32930;51.112;13.762;2023-01-31T08:33:49;99639.09;;;5.09;92.22
47166;BME280;32930;51.112;13.762;2023-01-31T08:36:21;99643.59;;;5.19;90.16
47166;BME280;32930;51.112;13.762;2023-01-31T08:38:48;99643.72;;;4.94;91.49
47166;BME280;32930;51.112;13.762;2023-01-31T08:41:15;99640.19;;;5.19;88.38
47166;BME280;32930;51.112;13.762;2023-01-31T08:53:03;99638.91;;;5.03;87.34
47166;BME280;32930;51.112;13.762;2023-01-31T08:55:34;99633.75;;;5.30;85.58
47166;BME280;32930;51.112;13.762;2023-01-31T08:58:00;99634.38;;;5.23;87.82
47166;BME280;32930;51.112;13.762;2023-01-31T09:00:39;99641.97;;;5.21;86.04
47166;BME280;32930;51.112;13.762;2023-01-31T09:11:38;99638.69;;;5.57;85.59
47166;BME280;32930;51.112;13.762;2023-01-31T09:14:03;99634.13;;;5.45;83.14
47166;BME280;32930;51.112;13.762;2023-01-31T09:19:04;99628.59;;;5.58;82.54
47166;BME280;32930;51.112;13.762;2023-01-31T09:21:30;99628.69;;;5.63;81.09
47166;BME280;32930;51.112;13.762;2023-01-31T09:23:58;99631.16;;;5.60;81.61
47166;BME280;32930;51.112;13.762;2023-01-31T09:26:26;99622.16;;;5.73;81.09
47166;BME280;32930;51.112;13.762;2023-01-31T09:28:59;99623.22;;;5.81;80.01
47166;BME280;32930;51.112;13.762;2023-01-31T09:31:25;99620.59;;;5.78;81.58
47166;BME280;32930;51.112;13.762;2023-01-31T09:42:38;99618.03;;;6.10;79.96
47166;BME280;32930;51.112;13.762;2023-01-31T09:45:06;99615.16;;;5.97;79.55
47166;BME280;32930;51.112;13.762;2023-01-31T09:47:59;99614.41;;;6.01;78.04
47166;BME280;32930;51.112;13.762;2023-01-31T09:53:56;99606.50;;;5.92;80.35
47166;BME280;32930;51.112;13.762;2023-01-31T10:00:03;99592.78;;;6.19;77.63
47166;BME280;32930;51.112;13.762;2023-01-31T10:15:10;99567.19;;;6.52;77.43
47166;BME280;32930;51.112;13.762;2023-01-31T10:17:56;99577.38;;;6.52;77.82
47166;BME280;32930;51.112;13.762;2023-01-31T10:21:14;99578.13;;;6.46;77.98
47166;BME280;32930;51.112;13.762;2023-01-31T10:57:30;99535.38;;;5.97;76.33
47166;BME280;32930;51.112;13.762;2023-01-31T10:59:56;99528.19;;;6.15;74.63
47166;BME280;32930;51.112;13.762;2023-01-31T11:02:25;99535.53;;;6.03;75.11
47166;BME280;32930;51.112;13.762;2023-01-31T11:04:54;99522.94;;;6.09;74.56
47166;BME280;32930;51.112;13.762;2023-01-31T11:09:52;99524.69;;;6.12;75.30
47166;BME280;32930;51.112;13.762;2023-01-31T11:15:15;99499.94;;;6.06;74.03
47166;BME280;32930;51.112;13.762;2023-01-31T11:17:46;99500.75;;;6.03;75.61
47166;BME280;32930;51.112;13.762;2023-01-31T11:33:59;99457.88;;;6.23;73.56
47166;BME280;32930;51.112;13.762;2023-01-31T11:36:31;99465.25;;;6.11;75.10
47166;BME280;32930;51.112;13.762;2023-01-31T11:38:57;99452.50;;;6.11;74.68
47166;BME280;32930;51.112;13.762;2023-01-31T11:44:16;99442.41;;;6.14;73.30
47166;BME280;32930;51.112;13.762;2023-01-31T11:46:57;99433.84;;;6.11;74.47
47166;BME280;32930;51.112;13.762;2023-01-31T11:49:41;99437.28;;;6.13;73.94
47166;BME280;32930;51.112;13.762;2023-01-31T11:52:19;99440.97;;;6.27;72.99
47166;BME280;32930;51.112;13.762;2023-01-31T11:54:58;99432.34;;;6.20;73.73
47166;BME280;32930;51.112;13.762;2023-01-31T11:57:35;99429.19;;;6.31;74.56
47166;BME280;32930;51.112;13.762;2023-01-31T12:00:20;99404.81;;;6.45;72.28
47166;BME280;32930;51.112;13.762;2023-01-31T12:02:57;99413.31;;;6.45;72.56
47166;BME280;32930;51.112;13.762;2023-01-31T12:05:35;99392.97;;;6.47;73.22
47166;BME280;32930;51.112;13.762;2023-01-31T12:08:05;99383.09;;;6.64;72.30
47166;BME280;32930;51.112;13.762;2023-01-31T12:10:52;99379.38;;;6.46;71.64
47166;BME280;32930;51.112;13.762;2023-01-31T12:13:20;99382.22;;;6.63;72.49
47166;BME280;32930;51.112;13.762;2023-01-31T12:16:02;99385.63;;;6.62;71.47
47166;BME280;32930;51.112;13.762;2023-01-31T12:29:18;99368.41;;;6.52;73.14
47166;BME280;32930;51.112;13.762;2023-01-31T12:32:23;99356.69;;;6.60;72.10
47166;BME280;32930;51.112;13.762;2023-01-31T12:43:16;99357.03;;;6.80;70.52
47166;BME280;32930;51.112;13.762;2023-01-31T12:49:24;99351.06;;;6.33;74.42
47166;BME280;32930;51.112;13.762;2023-01-31T12:54:38;99323.84;;;6.29;78.06
47166;BME280;32930;51.112;13.762;2023-01-31T13:05:54;99305.28;;;6.36;75.17
47166;BME280;32930;51.112;13.762;2023-01-31T13:21:09;99294.16;;;6.31;76.86
47166;BME280;32930;51.112;13.762;2023-01-31T13:23:45;99287.16;;;6.20;77.42
47166;BME280;32930;51.112;13.762;2023-01-31T13:26:26;99279.28;;;6.08;79.42
47166;BME280;32930;51.112;13.762;2023-01-31T13:35:53;99264.06;;;6.11;82.79
47166;BME280;32930;51.112;13.762;2023-01-31T13:38:22;99260.88;;;6.21;82.53
47166;BME280;32930;51.112;13.762;2023-01-31T13:40:53;99261.50;;;6.10;81.58
47166;BME280;32930;51.112;13.762;2023-01-31T13:43:20;99260.28;;;5.92;81.68
47166;BME280;32930;51.112;13.762;2023-01-31T13:56:34;99242.34;;;5.86;84.48
47166;BME280;32930;51.112;13.762;2023-01-31T13:59:08;99231.31;;;5.86;85.31
47166;BME280;32930;51.112;13.762;2023-01-31T14:01:48;99223.63;;;5.81;86.58
47166;BME280;32930;51.112;13.762;2023-01-31T14:04:26;99232.38;;;5.94;83.87
47166;BME280;32930;51.112;13.762;2023-01-31T14:12:32;99221.91;;;5.81;84.54
47166;BME280;32930;51.112;13.762;2023-01-31T14:15:44;99214.78;;;5.62;83.84
47166;BME280;32930;51.112;13.762;2023-01-31T14:17:59;99227.66;;;5.71;85.68
47166;BME280;32930;51.112;13.762;2023-01-31T14:20:29;99218.34;;;5.72;87.96
47166;BME280;32930;51.112;13.762;2023-01-31T14:23:28;99214.97;;;5.73;86.21
47166;BME280;32930;51.112;13.762;2023-01-31T14:25:56;99207.31;;;5.73;86.14
47166;BME280;32930;51.112;13.762;2023-01-31T14:28:25;99199.50;;;5.62;86.72
47166;BME280;32930;51.112;13.762;2023-01-31T14:31:17;99204.53;;;5.59;83.63
47166;BME280;32930;51.112;13.762;2023-01-31T14:34:23;99196.28;;;5.72;84.87
47166;BME280;32930;51.112;13.762;2023-01-31T14:58:19;99184.00;;;5.50;87.27
47166;BME280;32930;51.112;13.762;2023-01-31T15:01:22;99185.03;;;5.60;87.64
47166;BME280;32930;51.112;13.762;2023-01-31T15:04:21;99178.38;;;5.66;86.25
47166;BME280;32930;51.112;13.762;2023-01-31T15:06:57;99173.28;;;5.66;86.10
47166;BME280;32930;51.112;13.762;2023-01-31T15:10:02;99178.78;;;5.44;89.15
47166;BME280;32930;51.112;13.762;2023-01-31T15:12:55;99169.41;;;5.41;90.19
47166;BME280;32930;51.112;13.762;2023-01-31T15:15:37;99168.06;;;5.58;88.83
47166;BME280;32930;51.112;13.762;2023-01-31T15:18:19;99170.53;;;5.55;87.99
47166;BME280;32930;51.112;13.762;2023-01-31T15:24:00;99168.47;;;5.36;90.11
47166;BME280;32930;51.112;13.762;2023-01-31T15:26:37;99169.44;;;5.43;89.29
47166;BME280;32930;51.112;13.762;2023-01-31T16:49:35;99178.41;;;5.25;91.62
47166;BME280;32930;51.112;13.762;2023-01-31T16:52:15;99177.28;;;5.11;91.76
47166;BME280;32930;51.112;13.762;2023-01-31T16:54:44;99174.00;;;5.17;90.99
47166;BME280;32930;51.112;13.762;2023-01-31T17:20:04;99184.28;;;5.23;92.43
47166;BME280;32930;51.112;13.762;2023-01-31T17:22:30;99181.13;;;5.33;92.27
47166;BME280;32930;51.112;13.762;2023-01-31T17:30:20;99177.03;;;5.40;92.19
47166;BME280;32930;51.112;13.762;2023-01-31T17:32:49;99168.38;;;5.31;93.40
47166;BME280;32930;51.112;13.762;2023-01-31T17:35:32;99160.44;;;5.16;94.04
47166;BME280;32930;51.112;13.762;2023-01-31T17:38:20;99158.97;;;5.27;93.19
47166;BME280;32930;51.112;13.762;2023-01-31T17:40:58;99170.00;;;5.28;93.29
47166;BME280;32930;51.112;13.762;2023-01-31T17:43:23;99164.19;;;5.33;93.23
47166;BME280;32930;51.112;13.762;2023-01-31T17:46:06;99163.16;;;5.24;92.64
47166;BME280;32930;51.112;13.762;2023-01-31T17:48:34;99145.47;;;5.30;93.31
47166;BME280;32930;51.112;13.762;2023-01-31T17:51:22;99162.16;;;5.17;94.36
47166;BME280;32930;51.112;13.762;2023-01-31T17:53:50;99156.56;;;5.35;94.47
47166;BME280;32930;51.112;13.762;2023-01-31T17:56:25;99152.22;;;5.29;93.91
47166;BME280;32930;51.112;13.762;2023-01-31T17:58:58;99143.78;;;5.30;93.36
47166;BME280;32930;51.112;13.762;2023-01-31T18:01:24;99143.91;;;5.37;93.74
47166;BME280;32930;51.112;13.762;2023-01-31T18:03:52;99138.56;;;5.24;94.62
47166;BME280;32930;51.112;13.762;2023-01-31T18:06:27;99148.31;;;5.47;93.10
47166;BME280;32930;51.112;13.762;2023-01-31T18:09:16;99153.88;;;5.27;94.05
47166;BME280;32930;51.112;13.762;2023-01-31T18:11:53;99149.22;;;5.49;91.62
47166;BME280;32930;51.112;13.762;2023-01-31T18:14:19;99134.56;;;5.37;92.72
47166;BME280;32930;51.112;13.762;2023-01-31T18:16:44;99140.50;;;5.36;91.67
47166;BME280;32930;51.112;13.762;2023-01-31T18:19:11;99132.16;;;5.43;91.63
47166;BME280;32930;51.112;13.762;2023-01-31T18:21:39;99122.53;;;5.27;93.49
47166;BME280;32930;51.112;13.762;2023-01-31T18:24:11;99124.41;;;5.39;92.29
47166;BME280;32930;51.112;13.762;2023-01-31T18:26:46;99118.53;;;5.40;91.18
47166;BME280;32930;51.112;13.762;2023-01-31T18:35:26;99109.75;;;5.71;88.67
47166;BME280;32930;51.112;13.762;2023-01-31T18:37:52;99114.69;;;5.62;88.63
47166;BME280;32930;51.112;13.762;2023-01-31T18:40:23;99105.47;;;5.68;88.57
47166;BME280;32930;51.112;13.762;2023-01-31T18:42:58;99117.06;;;5.52;90.69
47166;BME280;32930;51.112;13.762;2023-01-31T18:45:24;99112.25;;;5.69;89.32
47166;BME280;32930;51.112;13.762;2023-01-31T18:48:07;99122.50;;;5.71;88.71
47166;BME280;32930;51.112;13.762;2023-01-31T18:50:36;99116.56;;;5.72;88.47
47166;BME280;32930;51.112;13.762;2023-01-31T18:53:08;99117.53;;;5.78;87.71
47166;BME280;32930;51.112;13.762;2023-01-31T18:55:43;99114.00;;;5.72;89.19
47166;BME280;32930;51.112;13.762;2023-01-31T18:58:11;99113.13;;;5.70;89.26
47166;BME280;32930;51.112;13.762;2023-01-31T19:00:46;99124.41;;;5.84;87.82
47166;BME280;32930;51.112;13.762;2023-01-31T19:06:20;99122.63;;;5.80;88.13
47166;BME280;32930;51.112;13.762;2023-01-31T19:09:18;99114.97;;;5.77;87.41
47166;BME280;32930;51.112;13.762;2023-01-31T19:11:52;99104.91;;;5.85;87.51
47166;BME280;32930;51.112;13.762;2023-01-31T19:14:18;99105.59;;;5.74;86.95
47166;BME280;32930;51.112;13.762;2023-01-31T19:16:52;99113.13;;;5.70;87.71
47166;BME280;32930;51.112;13.762;2023-01-31T19:19:20;99107.34;;;5.78;87.46
47166;BME280;32930;51.112;13.762;2023-01-31T19:21:55;99106.72;;;5.92;86.77
47166;BME280;32930;51.112;13.762;2023-01-31T19:24:36;99102.25;;;5.78;88.08
47166;BME280;32930;51.112;13.762;2023-01-31T19:27:10;99106.31;;;5.69;88.66
47166;BME280;32930;51.112;13.762;2023-01-31T19:29:48;99096.25;;;5.75;88.88
47166;BME280;32930;51.112;13.762;2023-01-31T19:32:20;99108.19;;;5.77;88.75
47166;BME280;32930;51.112;13.762;2023-01-31T19:34:47;99104.97;;;5.89;87.94
47166;BME280;32930;51.112;13.762;2023-01-31T19:37:15;99106.72;;;5.92;87.13
47166;BME280;32930;51.112;13.762;2023-01-31T19:39:41;99100.59;;;5.82;88.63
47166;BME280;32930;51.112;13.762;2023-01-31T19:42:15;99112.72;;;5.94;88.69
47166;BME280;32930;51.112;13.762;2023-01-31T19:44:41;99109.03;;;5.79;91.28
47166;BME280;32930;51.112;13.762;2023-01-31T19:47:06;99105.16;;;5.98;89.81
47166;BME280;32930;51.112;13.762;2023-01-31T19:49:32;99099.81;;;5.85;91.14
47166;BME280;32930;51.112;13.762;2023-01-31T19:51:57;99097.50;;;5.98;89.41
47166;BME280;32930;51.112;13.762;2023-01-31T19:54:24;99105.09;;;5.94;89.62
47166;BME280;32930;51.112;13.762;2023-01-31T19:56:49;99112.78;;;5.97;89.48
47166;BME280;32930;51.112;13.762;2023-01-31T19:59:15;99116.78;;;5.84;89.53
47166;BME280;32930;51.112;13.762;2023-01-31T20:01:40;99124.66;;;5.98;87.88
47166;BME280;32930;51.112;13.762;2023-01-31T20:04:06;99132.09;;;5.87;88.99
47166;BME280;32930;51.112;13.762;2023-01-31T20:06:33;99123.97;;;6.07;88.66
47166;BME280;32930;51.112;13.762;2023-01-31T20:09:00;99154.16;;;5.88;89.69
47166;BME280;32930;51.112;13.762;2023-01-31T20:11:29;99136.59;;;6.02;89.25
47166;BME280;32930;51.112;13.762;2023-01-31T20:13:55;99124.06;;;6.14;88.06
47166;BME280;32930;51.112;13.762;2023-01-31T20:16:24;99119.69;;;6.04;90.31
47166;BME280;32930;51.112;13.762;2023-01-31T20:18:50;99120.44;;;5.98;90.97
47166;BME280;32930;51.112;13.762;2023-01-31T20:21:18;99122.97;;;5.97;90.61
47166;BME280;32930;51.112;13.762;2023-01-31T20:23:44;99117.00;;;5.96;89.94
47166;BME280;32930;51.112;13.762;2023-01-31T20:26:12;99114.34;;;5.92;90.66
47166;BME280;32930;51.112;13.762;2023-01-31T20:28:38;99108.25;;;5.82;91.33
47166;BME280;32930;51.112;13.762;2023-01-31T20:31:09;99122.97;;;5.97;90.39
47166;BME280;32930;51.112;13.762;2023-01-31T20:33:36;99118.66;;;5.94;91.60
47166;BME280;32930;51.112;13.762;2023-01-31T20:36:01;99119.28;;;5.82;92.87
47166;BME280;32930;51.112;13.762;2023-01-31T20:38:27;99102.47;;;5.91;93.33
47166;BME280;32930;51.112;13.762;2023-01-31T20:40:54;99088.88;;;5.92;94.17
47166;BME280;32930;51.112;13.762;2023-01-31T20:43:22;99099.25;;;6.01;93.51
47166;BME280;32930;51.112;13.762;2023-01-31T20:45:49;99087.28;;;5.94;93.65
47166;BME280;32930;51.112;13.762;2023-01-31T20:48:15;99090.81;;;6.03;92.34
47166;BME280;32930;51.112;13.762;2023-01-31T20:50:41;99092.19;;;5.85;93.17
47166;BME280;32930;51.112;13.762;2023-01-31T20:53:17;99085.63;;;5.99;92.24
47166;BME280;32930;51.112;13.762;2023-01-31T21:45:46;99145.50;;;5.77;93.31
47166;BME280;32930;51.112;13.762;2023-01-31T22:06:38;99124.75;;;6.04;91.86
47166;BME280;32930;51.112;13.762;2023-01-31T22:09:06;99128.16;;;6.03;91.65
47166;BME280;32930;51.112;13.762;2023-01-31T22:11:36;99123.06;;;6.04;92.30
47166;BME280;32930;51.112;13.762;2023-01-31T22:14:10;99123.28;;;6.17;91.39
47166;BME280;32930;51.112;13.762;2023-01-31T22:16:36;99121.44;;;6.08;91.06
47166;BME280;32930;51.112;13.762;2023-01-31T22:19:05;99122.38;;;6.12;90.73
47166;BME280;32930;51.112;13.762;2023-01-31T22:21:33;99112.94;;;6.08;91.40
47166;BME280;32930;51.112;13.762;2023-01-31T22:24:01;99121.56;;;6.17;91.15
47166;BME280;32930;51.112;13.762;2023-01-31T22:26:33;99130.22;;;6.25;91.20
47166;BME280;32930;51.112;13.762;2023-01-31T22:29:01;99107.13;;;6.16;90.55
47166;BME280;32930;51.112;13.762;2023-01-31T22:31:28;99098.81;;;6.26;90.23
47166;BME280;32930;51.112;13.762;2023-01-31T22:33:59;99111.44;;;6.19;90.49
47166;BME280;32930;51.112;13.762;2023-01-31T22:36:27;99110.69;;;6.24;90.16
47166;BME280;32930;51.112;13.762;2023-01-31T22:38:53;99102.34;;;6.36;89.39
47166;BME280;32930;51.112;13.762;2023-01-31T22:41:20;99104.75;;;6.25;89.44